Northwestern — WDE5199 — position and weather

sailwx.info

Track history (hours):
 
Tides and Currents Weather Stations Pressure Air Temp Water Temp Dewpoint Dewpoint Depression Visibility Wind Speed Wind Dir Waves Ship Positions

Northwestern

Owner: Northwestern LLC, Seattle, WA. More information available from US FCC via Universal Licensing System and Coast Guard Vessel Documentation Center.

Last reported at 2014-Jun-04 18:23 UTC. Time now 2014-Oct-21 16:47 UTC.
Position N 55°03' W 135°53'.
Warning: this ship's position is months out of date.

Length 38 m; draft 4.3 m.

Type: Fishing. MMSI: 367363350.

Date/timePositionNaut miles runAvg speedWind from/ knotsBaromVisibWave heightAir tempDewpointWater temp
2014-Jun-04 18:23N 55°03' W 135°53'471 9.1
2014-Jun-02 14:31N 49°28' W 126°50'9 9.5
2014-Jun-02 13:34N 49°22' W 126°40'10 9.6
2014-Jun-02 12:33N 49°17' W 126°28'32 9.8
2014-Jun-02 09:17N 48°58' W 125°48'710.1
2014-Jun-02 08:34N 48°54' W 125°39'29 9.6
2014-Jun-02 05:31N 48°37' W 125°03'9 9.6
2014-Jun-02 04:32N 48°31' W 124°51'1010.2
2014-Jun-02 03:33N 48°25' W 124°39'3 2.6
2014-Jun-02 02:33N 48°24' W 124°36'6 6.4
2014-Jun-02 01:33N 48°29' W 124°43'7 7.3
2014-Jun-02 00:33N 48°22' W 124°37'0 0.1
2014-Jun-01 23:33N 48°22' W 124°37'0 0.2
2014-Jun-01 22:33N 48°22' W 124°37'29 9.7
2014-Jun-01 19:33N 48°13' W 123°55'1312.7
2014-Jun-01 18:33N 48°13' W 123°36'1313.0
2014-Jun-01 17:33N 48°13' W 123°17'1212.4
2014-Jun-01 16:33N 48°12' W 122°58'2210.8
2014-Jun-01 14:34N 47°58' W 122°34'012.0
2014-Jun-01 14:33N 47°58' W 122°34'211.4
2014-Jun-01 14:24N 47°57' W 122°32'910.6
2014-Jun-01 13:33N 47°49' W 122°26'110.4
2014-Jun-01 13:29N 47°48' W 122°26'7 7.9
2014-Jun-01 12:33N 47°41' W 122°25'0 0.0
2014-Jun-01 11:36N 47°41' W 122°25'0 0.0
2014-Jun-01 11:33N 47°41' W 122°25'0 0.2
2014-Jun-01 11:31N 47°41' W 122°25'0 0.0
2014-Jun-01 10:33N 47°41' W 122°25'0 0.0
2014-Jun-01 10:31N 47°41' W 122°25'0 0.0
2014-Jun-01 09:34N 47°41' W 122°25'0 0.0
2014-Jun-01 09:31N 47°41' W 122°25'0 0.0
2014-Jun-01 08:33N 47°41' W 122°25'0 0.0
2014-Jun-01 08:31N 47°41' W 122°25'0 0.0
2014-Jun-01 07:33N 47°41' W 122°25'0 0.0
2014-Jun-01 07:31N 47°41' W 122°25'0 0.0
2014-Jun-01 06:33N 47°41' W 122°25'0 0.0
2014-Jun-01 06:31N 47°41' W 122°25'0 0.0
2014-Jun-01 05:33N 47°41' W 122°25'0 0.0
2014-Jun-01 05:31N 47°41' W 122°25'0 0.0
2014-Jun-01 04:33N 47°41' W 122°25'0 0.0
2014-Jun-01 04:31N 47°41' W 122°25'0 0.0
2014-Jun-01 03:33N 47°41' W 122°25'0 0.0
2014-Jun-01 03:31N 47°41' W 122°25'1 1.4
2014-Jun-01 02:33N 47°42' W 122°25'1 9.9
2014-Jun-01 02:30N 47°42' W 122°25'0 0.3
2014-Jun-01 01:33N 47°43' W 122°25'0 9.2
2014-Jun-01 01:31N 47°42' W 122°25'3 2.6
2014-Jun-01 00:33N 47°40' W 122°23'0 0.0
2014-Jun-01 00:30N 47°40' W 122°23'0 0.0
2014-May-31 23:32N 47°40' W 122°23'0 0.0
2014-May-31 23:10N 47°40' W 122°23'0 0.0
2014-May-31 22:33N 47°40' W 122°23'0 0.0
2014-May-31 22:29N 47°40' W 122°23'0 0.0
2014-May-31 21:33N 47°40' W 122°23'0 0.0
2014-May-31 21:29N 47°40' W 122°23'0 0.0
2014-May-31 20:33N 47°40' W 122°23'0 0.1
2014-May-31 20:29N 47°40' W 122°23'0 0.0
2014-May-31 19:33N 47°40' W 122°23'0 0.0
2014-May-31 19:29N 47°40' W 122°23'0 0.0
2014-May-31 18:33N 47°40' W 122°23'0 0.0
2014-May-31 18:29N 47°40' W 122°23'0 0.0
2014-May-31 17:33N 47°40' W 122°23'0 0.0
2014-May-31 17:29N 47°40' W 122°23'0 0.0
2014-May-31 16:33N 47°40' W 122°23'0 0.0
2014-May-31 16:29N 47°40' W 122°23'0 0.0
2014-May-31 15:33N 47°40' W 122°23'0 0.1
2014-May-31 15:29N 47°40' W 122°23'0 0.0
2014-May-31 14:33N 47°40' W 122°23'0 0.0
2014-May-31 14:28N 47°40' W 122°23'0 0.0
2014-May-31 13:33N 47°40' W 122°23'0 0.1
2014-May-31 13:29N 47°40' W 122°23'0 0.0
2014-May-31 12:33N 47°40' W 122°23'0 0.0
2014-May-31 12:29N 47°40' W 122°23'0 0.0
2014-May-31 11:34N 47°40' W 122°23'0 0.0
2014-May-31 11:29N 47°40' W 122°23'0 0.0
2014-May-31 10:33N 47°40' W 122°23'0 0.0
2014-May-31 10:23N 47°40' W 122°23'0 0.0
2014-May-31 09:33N 47°40' W 122°23'0 0.4
2014-May-31 09:33N 47°40' W 122°23'0 0.0
2014-May-31 08:33N 47°40' W 122°23'0 0.0
2014-May-31 08:27N 47°40' W 122°23'0 0.0
2014-May-31 07:33N 47°40' W 122°23'0 0.0
2014-May-31 07:32N 47°40' W 122°23'0 0.0
2014-May-31 06:33N 47°40' W 122°23'0 0.0
2014-May-31 06:32N 47°40' W 122°23'0 0.0
2014-May-31 05:33N 47°40' W 122°23'0 0.1
2014-May-31 05:27N 47°40' W 122°23'0 0.0
2014-May-31 04:33N 47°40' W 122°23'0 0.0
2014-May-31 04:32N 47°40' W 122°23'0 0.0
2014-May-31 03:33N 47°40' W 122°23'0 0.3
2014-May-31 03:32N 47°40' W 122°23'0 0.0
2014-May-31 02:33N 47°40' W 122°23'0 0.0
2014-May-31 02:32N 47°40' W 122°23'0 0.0
2014-May-31 01:33N 47°40' W 122°23'0 0.1
2014-May-31 01:27N 47°40' W 122°23'0 0.1
2014-May-31 00:33N 47°40' W 122°23'0 0.0
2014-May-31 00:32N 47°40' W 122°23'0 0.0
2014-May-30 23:33N 47°40' W 122°23'0 0.0
2014-May-30 23:30N 47°40' W 122°23'0 0.0
2014-May-30 22:33N 47°40' W 122°23'0 0.1
2014-May-30 22:31N 47°40' W 122°23'0 0.0
2014-May-30 21:34N 47°40' W 122°23'0 0.0
2014-May-30 21:31N 47°40' W 122°23'0 0.0
2014-May-30 20:34N 47°40' W 122°23'0 0.0
2014-May-30 20:31N 47°40' W 122°23'0 0.0
2014-May-30 19:33N 47°40' W 122°23'0 0.0
2014-May-30 19:31N 47°40' W 122°23'0 0.0
2014-May-30 18:33N 47°40' W 122°23'0 0.0
2014-May-30 18:30N 47°40' W 122°23'0 0.0
2014-May-30 17:33N 47°40' W 122°23'0 0.0
2014-May-30 17:31N 47°40' W 122°23'0 0.0
2014-May-30 16:34N 47°40' W 122°23'0 0.8
2014-May-30 16:31N 47°40' W 122°23'0 0.0
2014-May-30 15:33N 47°40' W 122°23'0 0.0
2014-May-30 15:30N 47°40' W 122°23'0 0.0
2014-May-30 14:33N 47°40' W 122°23'0 0.0
2014-May-30 14:30N 47°40' W 122°23'0 0.0
2014-May-30 13:33N 47°40' W 122°23'0 0.0
2014-May-30 13:30N 47°40' W 122°23'0 0.0
2014-May-30 12:34N 47°40' W 122°23'0 0.7
2014-May-30 12:30N 47°40' W 122°23'0 0.0
2014-May-30 11:33N 47°40' W 122°23'0 0.0
2014-May-30 11:30N 47°40' W 122°23'0 0.0
2014-May-30 10:33N 47°40' W 122°23'0 0.1
2014-May-30 10:30N 47°40' W 122°23'0 0.0
2014-May-30 09:33N 47°40' W 122°23'0 0.0
2014-May-30 09:19N 47°40' W 122°23'0 0.0
2014-May-30 08:33N 47°40' W 122°23'0 0.5
2014-May-30 08:29N 47°40' W 122°23'0 0.0
2014-May-30 07:33N 47°40' W 122°23'0 0.1
2014-May-30 07:29N 47°40' W 122°23'0 0.0
2014-May-30 06:33N 47°40' W 122°23'0 0.0
2014-May-30 06:29N 47°40' W 122°23'0 0.0
2014-May-30 05:33N 47°40' W 122°23'0 0.0
2014-May-30 05:29N 47°40' W 122°23'0 0.0
2014-May-30 04:33N 47°40' W 122°23'0 0.0
2014-May-30 04:29N 47°40' W 122°23'0 0.0
2014-May-30 03:34N 47°40' W 122°23'0 0.0
2014-May-30 03:29N 47°40' W 122°23'0 0.0
2014-May-30 02:33N 47°40' W 122°23'0 0.0
2014-May-30 02:29N 47°40' W 122°23'0 0.0
2014-May-30 01:33N 47°40' W 122°23'0 0.1
2014-May-30 01:28N 47°40' W 122°23'0 0.0
2014-May-30 00:34N 47°40' W 122°23'0 0.0
2014-May-30 00:33N 47°40' W 122°23'0 0.0
2014-May-29 23:34N 47°40' W 122°23'0 1.4
2014-May-29 23:33N 47°40' W 122°23'0 0.1
2014-May-29 22:34N 47°40' W 122°23'0 0.0
2014-May-29 22:33N 47°40' W 122°23'0 0.0
2014-May-29 21:33N 47°40' W 122°23'0 0.0
2014-May-29 21:33N 47°40' W 122°23'0 0.0
2014-May-29 20:33N 47°40' W 122°23'0 0.0
2014-May-29 20:33N 47°40' W 122°23'0 0.0
2014-May-29 19:33N 47°40' W 122°23'0 0.0
2014-May-29 19:33N 47°40' W 122°23'0 0.0
2014-May-29 18:33N 47°40' W 122°23'0 0.0
2014-May-29 18:33N 47°40' W 122°23'0 0.0
2014-May-29 17:33N 47°40' W 122°23'0 0.0
2014-May-29 17:33N 47°40' W 122°23'0 0.0
2014-May-29 16:33N 47°40' W 122°23'0 0.0
2014-May-29 16:33N 47°40' W 122°23'0 0.0
2014-May-29 15:33N 47°40' W 122°23'0 0.0
2014-May-29 15:33N 47°40' W 122°23'0 0.0
2014-May-29 14:33N 47°40' W 122°23'0 0.0
2014-May-29 14:33N 47°40' W 122°23'0 0.0
2014-May-29 11:33N 47°40' W 122°23'0 0.0
2014-May-29 11:32N 47°40' W 122°23'0 0.0
2014-May-29 10:32N 47°40' W 122°23'0 0.0
2014-May-29 10:32N 47°40' W 122°23'0 0.0
2014-May-29 09:33N 47°40' W 122°23'0 0.0
2014-May-29 09:32N 47°40' W 122°23'0 0.0
2014-May-29 08:33N 47°40' W 122°23'0 0.0
2014-May-29 08:32N 47°40' W 122°23'0 0.0
2014-May-29 07:34N 47°40' W 122°23'0 0.0
2014-May-29 07:32N 47°40' W 122°23'0 0.0
2014-May-29 06:33N 47°40' W 122°23'0 0.0
2014-May-29 06:32N 47°40' W 122°23'0 0.0
2014-May-29 05:33N 47°40' W 122°23'0 0.3
2014-May-29 05:32N 47°40' W 122°23'0 0.0
2014-May-29 04:33N 47°40' W 122°23'0 0.0
2014-May-29 04:32N 47°40' W 122°23'0 0.0
2014-May-29 03:51N 47°40' W 122°23'0 0.0
2014-May-29 03:47N 47°40' W 122°23'0 0.0
2014-May-29 03:33N 47°40' W 122°23'0 0.0
2014-May-29 03:32N 47°40' W 122°23'0 0.0
2014-May-29 02:32N 47°40' W 122°23'0 0.0
2014-May-29 02:32N 47°40' W 122°23'0 0.0
2014-May-29 01:33N 47°40' W 122°23'0 0.0
2014-May-29 00:33N 47°40' W 122°23'0 0.0
2014-May-28 23:33N 47°40' W 122°23'0 0.0
2014-May-28 22:33N 47°40' W 122°23'0 0.0
2014-May-28 21:33N 47°40' W 122°23'0 0.0
2014-May-28 20:33N 47°40' W 122°23'0 0.0
2014-May-28 19:33N 47°40' W 122°23'  
Track history (hours):
 
Tides and Currents Weather Stations Pressure Air Temp Water Temp Dewpoint Dewpoint Depression Visibility Wind Speed Wind Dir Waves Ship Positions

Northwestern

Owner: Northwestern LLC, Seattle, WA. More information available from US FCC via Universal Licensing System and Coast Guard Vessel Documentation Center.

Last reported at 2014-Jun-04 18:23 UTC. Time now 2014-Oct-21 16:47 UTC.
Position N 55°03' W 135°53'.
Warning: this ship's position is months out of date.

Length 38 m; draft 4.3 m.

Type: Fishing. MMSI: 367363350.

Date/timePositionNaut miles runAvg speedWind from/ knotsBaromVisibWave heightAir tempDewpointWater temp
2014-Jun-04 18:23N 55°03' W 135°53'471 9.1
2014-Jun-02 14:31N 49°28' W 126°50'9 9.5
2014-Jun-02 13:34N 49°22' W 126°40'10 9.6
2014-Jun-02 12:33N 49°17' W 126°28'32 9.8
2014-Jun-02 09:17N 48°58' W 125°48'710.1
2014-Jun-02 08:34N 48°54' W 125°39'29 9.6
2014-Jun-02 05:31N 48°37' W 125°03'9 9.6
2014-Jun-02 04:32N 48°31' W 124°51'1010.2
2014-Jun-02 03:33N 48°25' W 124°39'3 2.6
2014-Jun-02 02:33N 48°24' W 124°36'6 6.4
2014-Jun-02 01:33N 48°29' W 124°43'7 7.3
2014-Jun-02 00:33N 48°22' W 124°37'0 0.1
2014-Jun-01 23:33N 48°22' W 124°37'0 0.2
2014-Jun-01 22:33N 48°22' W 124°37'29 9.7
2014-Jun-01 19:33N 48°13' W 123°55'1312.7
2014-Jun-01 18:33N 48°13' W 123°36'1313.0
2014-Jun-01 17:33N 48°13' W 123°17'1212.4
2014-Jun-01 16:33N 48°12' W 122°58'2210.8
2014-Jun-01 14:34N 47°58' W 122°34'012.0
2014-Jun-01 14:33N 47°58' W 122°34'211.4
2014-Jun-01 14:24N 47°57' W 122°32'910.6
2014-Jun-01 13:33N 47°49' W 122°26'110.4
2014-Jun-01 13:29N 47°48' W 122°26'7 7.9
2014-Jun-01 12:33N 47°41' W 122°25'0 0.0
2014-Jun-01 11:36N 47°41' W 122°25'0 0.0
2014-Jun-01 11:33N 47°41' W 122°25'0 0.2
2014-Jun-01 11:31N 47°41' W 122°25'0 0.0
2014-Jun-01 10:33N 47°41' W 122°25'0 0.0
2014-Jun-01 10:31N 47°41' W 122°25'0 0.0
2014-Jun-01 09:34N 47°41' W 122°25'0 0.0
2014-Jun-01 09:31N 47°41' W 122°25'0 0.0
2014-Jun-01 08:33N 47°41' W 122°25'0 0.0
2014-Jun-01 08:31N 47°41' W 122°25'0 0.0
2014-Jun-01 07:33N 47°41' W 122°25'0 0.0
2014-Jun-01 07:31N 47°41' W 122°25'0 0.0
2014-Jun-01 06:33N 47°41' W 122°25'0 0.0
2014-Jun-01 06:31N 47°41' W 122°25'0 0.0
2014-Jun-01 05:33N 47°41' W 122°25'0 0.0
2014-Jun-01 05:31N 47°41' W 122°25'0 0.0
2014-Jun-01 04:33N 47°41' W 122°25'0 0.0
2014-Jun-01 04:31N 47°41' W 122°25'0 0.0
2014-Jun-01 03:33N 47°41' W 122°25'0 0.0
2014-Jun-01 03:31N 47°41' W 122°25'1 1.4
2014-Jun-01 02:33N 47°42' W 122°25'1 9.9
2014-Jun-01 02:30N 47°42' W 122°25'0 0.3
2014-Jun-01 01:33N 47°43' W 122°25'0 9.2
2014-Jun-01 01:31N 47°42' W 122°25'3 2.6
2014-Jun-01 00:33N 47°40' W 122°23'0 0.0
2014-Jun-01 00:30N 47°40' W 122°23'0 0.0
2014-May-31 23:32N 47°40' W 122°23'0 0.0
2014-May-31 23:10N 47°40' W 122°23'0 0.0
2014-May-31 22:33N 47°40' W 122°23'0 0.0
2014-May-31 22:29N 47°40' W 122°23'0 0.0
2014-May-31 21:33N 47°40' W 122°23'0 0.0
2014-May-31 21:29N 47°40' W 122°23'0 0.0
2014-May-31 20:33N 47°40' W 122°23'0 0.1
2014-May-31 20:29N 47°40' W 122°23'0 0.0
2014-May-31 19:33N 47°40' W 122°23'0 0.0
2014-May-31 19:29N 47°40' W 122°23'0 0.0
2014-May-31 18:33N 47°40' W 122°23'0 0.0
2014-May-31 18:29N 47°40' W 122°23'0 0.0
2014-May-31 17:33N 47°40' W 122°23'0 0.0
2014-May-31 17:29N 47°40' W 122°23'0 0.0
2014-May-31 16:33N 47°40' W 122°23'0 0.0
2014-May-31 16:29N 47°40' W 122°23'0 0.0
2014-May-31 15:33N 47°40' W 122°23'0 0.1
2014-May-31 15:29N 47°40' W 122°23'0 0.0
2014-May-31 14:33N 47°40' W 122°23'0 0.0
2014-May-31 14:28N 47°40' W 122°23'0 0.0
2014-May-31 13:33N 47°40' W 122°23'0 0.1
2014-May-31 13:29N 47°40' W 122°23'0 0.0
2014-May-31 12:33N 47°40' W 122°23'0 0.0
2014-May-31 12:29N 47°40' W 122°23'0 0.0
2014-May-31 11:34N 47°40' W 122°23'0 0.0
2014-May-31 11:29N 47°40' W 122°23'0 0.0
2014-May-31 10:33N 47°40' W 122°23'0 0.0
2014-May-31 10:23N 47°40' W 122°23'0 0.0
2014-May-31 09:33N 47°40' W 122°23'0 0.4
2014-May-31 09:33N 47°40' W 122°23'0 0.0
2014-May-31 08:33N 47°40' W 122°23'0 0.0
2014-May-31 08:27N 47°40' W 122°23'0 0.0
2014-May-31 07:33N 47°40' W 122°23'0 0.0
2014-May-31 07:32N 47°40' W 122°23'0 0.0
2014-May-31 06:33N 47°40' W 122°23'0 0.0
2014-May-31 06:32N 47°40' W 122°23'0 0.0
2014-May-31 05:33N 47°40' W 122°23'0 0.1
2014-May-31 05:27N 47°40' W 122°23'0 0.0
2014-May-31 04:33N 47°40' W 122°23'0 0.0
2014-May-31 04:32N 47°40' W 122°23'0 0.0
2014-May-31 03:33N 47°40' W 122°23'0 0.3
2014-May-31 03:32N 47°40' W 122°23'0 0.0
2014-May-31 02:33N 47°40' W 122°23'0 0.0
2014-May-31 02:32N 47°40' W 122°23'0 0.0
2014-May-31 01:33N 47°40' W 122°23'0 0.1
2014-May-31 01:27N 47°40' W 122°23'0 0.1
2014-May-31 00:33N 47°40' W 122°23'0 0.0
2014-May-31 00:32N 47°40' W 122°23'0 0.0
2014-May-30 23:33N 47°40' W 122°23'0 0.0
2014-May-30 23:30N 47°40' W 122°23'0 0.0
2014-May-30 22:33N 47°40' W 122°23'0 0.1
2014-May-30 22:31N 47°40' W 122°23'0 0.0
2014-May-30 21:34N 47°40' W 122°23'0 0.0
2014-May-30 21:31N 47°40' W 122°23'0 0.0
2014-May-30 20:34N 47°40' W 122°23'0 0.0
2014-May-30 20:31N 47°40' W 122°23'0 0.0
2014-May-30 19:33N 47°40' W 122°23'0 0.0
2014-May-30 19:31N 47°40' W 122°23'0 0.0
2014-May-30 18:33N 47°40' W 122°23'0 0.0
2014-May-30 18:30N 47°40' W 122°23'0 0.0
2014-May-30 17:33N 47°40' W 122°23'0 0.0
2014-May-30 17:31N 47°40' W 122°23'0 0.0
2014-May-30 16:34N 47°40' W 122°23'0 0.8
2014-May-30 16:31N 47°40' W 122°23'0 0.0
2014-May-30 15:33N 47°40' W 122°23'0 0.0
2014-May-30 15:30N 47°40' W 122°23'0 0.0
2014-May-30 14:33N 47°40' W 122°23'0 0.0
2014-May-30 14:30N 47°40' W 122°23'0 0.0
2014-May-30 13:33N 47°40' W 122°23'0 0.0
2014-May-30 13:30N 47°40' W 122°23'0 0.0
2014-May-30 12:34N 47°40' W 122°23'0 0.7
2014-May-30 12:30N 47°40' W 122°23'0 0.0
2014-May-30 11:33N 47°40' W 122°23'0 0.0
2014-May-30 11:30N 47°40' W 122°23'0 0.0
2014-May-30 10:33N 47°40' W 122°23'0 0.1
2014-May-30 10:30N 47°40' W 122°23'0 0.0
2014-May-30 09:33N 47°40' W 122°23'0 0.0
2014-May-30 09:19N 47°40' W 122°23'0 0.0
2014-May-30 08:33N 47°40' W 122°23'0 0.5
2014-May-30 08:29N 47°40' W 122°23'0 0.0
2014-May-30 07:33N 47°40' W 122°23'0 0.1
2014-May-30 07:29N 47°40' W 122°23'0 0.0
2014-May-30 06:33N 47°40' W 122°23'0 0.0
2014-May-30 06:29N 47°40' W 122°23'0 0.0
2014-May-30 05:33N 47°40' W 122°23'0 0.0
2014-May-30 05:29N 47°40' W 122°23'0 0.0
2014-May-30 04:33N 47°40' W 122°23'0 0.0
2014-May-30 04:29N 47°40' W 122°23'0 0.0
2014-May-30 03:34N 47°40' W 122°23'0 0.0
2014-May-30 03:29N 47°40' W 122°23'0 0.0
2014-May-30 02:33N 47°40' W 122°23'0 0.0
2014-May-30 02:29N 47°40' W 122°23'0 0.0
2014-May-30 01:33N 47°40' W 122°23'0 0.1
2014-May-30 01:28N 47°40' W 122°23'0 0.0
2014-May-30 00:34N 47°40' W 122°23'0 0.0
2014-May-30 00:33N 47°40' W 122°23'0 0.0
2014-May-29 23:34N 47°40' W 122°23'0 1.4
2014-May-29 23:33N 47°40' W 122°23'0 0.1
2014-May-29 22:34N 47°40' W 122°23'0 0.0
2014-May-29 22:33N 47°40' W 122°23'0 0.0
2014-May-29 21:33N 47°40' W 122°23'0 0.0
2014-May-29 21:33N 47°40' W 122°23'0 0.0
2014-May-29 20:33N 47°40' W 122°23'0 0.0
2014-May-29 20:33N 47°40' W 122°23'0 0.0
2014-May-29 19:33N 47°40' W 122°23'0 0.0
2014-May-29 19:33N 47°40' W 122°23'0 0.0
2014-May-29 18:33N 47°40' W 122°23'0 0.0
2014-May-29 18:33N 47°40' W 122°23'0 0.0
2014-May-29 17:33N 47°40' W 122°23'0 0.0
2014-May-29 17:33N 47°40' W 122°23'0 0.0
2014-May-29 16:33N 47°40' W 122°23'0 0.0
2014-May-29 16:33N 47°40' W 122°23'0 0.0
2014-May-29 15:33N 47°40' W 122°23'0 0.0
2014-May-29 15:33N 47°40' W 122°23'0 0.0
2014-May-29 14:33N 47°40' W 122°23'0 0.0
2014-May-29 14:33N 47°40' W 122°23'0 0.0
2014-May-29 11:33N 47°40' W 122°23'0 0.0
2014-May-29 11:32N 47°40' W 122°23'0 0.0
2014-May-29 10:32N 47°40' W 122°23'0 0.0
2014-May-29 10:32N 47°40' W 122°23'0 0.0
2014-May-29 09:33N 47°40' W 122°23'0 0.0
2014-May-29 09:32N 47°40' W 122°23'0 0.0
2014-May-29 08:33N 47°40' W 122°23'0 0.0
2014-May-29 08:32N 47°40' W 122°23'0 0.0
2014-May-29 07:34N 47°40' W 122°23'0 0.0
2014-May-29 07:32N 47°40' W 122°23'0 0.0
2014-May-29 06:33N 47°40' W 122°23'0 0.0
2014-May-29 06:32N 47°40' W 122°23'0 0.0
2014-May-29 05:33N 47°40' W 122°23'0 0.3
2014-May-29 05:32N 47°40' W 122°23'0 0.0
2014-May-29 04:33N 47°40' W 122°23'0 0.0
2014-May-29 04:32N 47°40' W 122°23'0 0.0
2014-May-29 03:51N 47°40' W 122°23'0 0.0
2014-May-29 03:47N 47°40' W 122°23'0 0.0
2014-May-29 03:33N 47°40' W 122°23'0 0.0
2014-May-29 03:32N 47°40' W 122°23'0 0.0
2014-May-29 02:32N 47°40' W 122°23'0 0.0
2014-May-29 02:32N 47°40' W 122°23'0 0.0
2014-May-29 01:33N 47°40' W 122°23'0 0.0
2014-May-29 00:33N 47°40' W 122°23'0 0.0
2014-May-28 23:33N 47°40' W 122°23'0 0.0
2014-May-28 22:33N 47°40' W 122°23'0 0.0
2014-May-28 21:33N 47°40' W 122°23'0 0.0
2014-May-28 20:33N 47°40' W 122°23'0 0.0
2014-May-28 19:33N 47°40' W 122°23'  

Dump ship's entire track history